sensor_id;sensor_type;location;lat;lon;timestamp;temperature;humidity
4962;DHT22;2496;52.468;13.342;2023-04-25T00:02:15;9.90;99.90
4962;DHT22;2496;52.468;13.342;2023-04-25T00:04:43;9.90;99.90
4962;DHT22;2496;52.468;13.342;2023-04-25T00:07:11;9.90;99.90
4962;DHT22;2496;52.468;13.342;2023-04-25T00:09:38;9.90;99.90
4962;DHT22;2496;52.468;13.342;2023-04-25T00:12:06;9.90;99.90
4962;DHT22;2496;52.468;13.342;2023-04-25T00:14:33;9.90;99.90
4962;DHT22;2496;52.468;13.342;2023-04-25T00:17:01;9.80;99.90
4962;DHT22;2496;52.468;13.342;2023-04-25T00:19:28;9.80;99.90
4962;DHT22;2496;52.468;13.342;2023-04-25T00:21:55;9.80;99.90
4962;DHT22;2496;52.468;13.342;2023-04-25T00:24:23;9.90;99.90
4962;DHT22;2496;52.468;13.342;2023-04-25T00:26:51;9.80;99.90
4962;DHT22;2496;52.468;13.342;2023-04-25T00:29:18;9.80;99.90
4962;DHT22;2496;52.468;13.342;2023-04-25T00:31:44;9.80;99.90
4962;DHT22;2496;52.468;13.342;2023-04-25T00:34:11;9.80;99.90
4962;DHT22;2496;52.468;13.342;2023-04-25T00:36:38;9.80;99.90
4962;DHT22;2496;52.468;13.342;2023-04-25T00:39:05;9.90;99.90
4962;DHT22;2496;52.468;13.342;2023-04-25T00:41:34;9.90;99.90
4962;DHT22;2496;52.468;13.342;2023-04-25T00:44:03;9.80;99.90
4962;DHT22;2496;52.468;13.342;2023-04-25T00:46:31;9.80;99.90
4962;DHT22;2496;52.468;13.342;2023-04-25T00:48:58;9.80;99.90
4962;DHT22;2496;52.468;13.342;2023-04-25T00:51:25;9.90;99.90
4962;DHT22;2496;52.468;13.342;2023-04-25T00:53:53;9.90;99.90
4962;DHT22;2496;52.468;13.342;2023-04-25T00:56:21;9.90;99.90
4962;DHT22;2496;52.468;13.342;2023-04-25T00:58:50;9.80;99.90
4962;DHT22;2496;52.468;13.342;2023-04-25T01:01:19;9.80;99.90
4962;DHT22;2496;52.468;13.342;2023-04-25T01:03:46;9.90;99.90
4962;DHT22;2496;52.468;13.342;2023-04-25T01:06:17;9.90;99.90
4962;DHT22;2496;52.468;13.342;2023-04-25T01:08:44;9.80;99.90
4962;DHT22;2496;52.468;13.342;2023-04-25T01:11:11;9.80;99.90
4962;DHT22;2496;52.468;13.342;2023-04-25T01:13:38;9.80;99.90
4962;DHT22;2496;52.468;13.342;2023-04-25T01:16:07;9.80;99.90
4962;DHT22;2496;52.468;13.342;2023-04-25T01:18:34;9.80;99.90
4962;DHT22;2496;52.468;13.342;2023-04-25T01:21:09;9.80;99.90
4962;DHT22;2496;52.468;13.342;2023-04-25T01:23:36;9.90;99.90
4962;DHT22;2496;52.468;13.342;2023-04-25T01:26:04;9.80;99.90
4962;DHT22;2496;52.468;13.342;2023-04-25T01:28:33;9.80;99.90
4962;DHT22;2496;52.468;13.342;2023-04-25T01:31:00;9.80;99.90
4962;DHT22;2496;52.468;13.342;2023-04-25T01:33:29;9.80;99.90
4962;DHT22;2496;52.468;13.342;2023-04-25T01:35:56;9.80;99.90
4962;DHT22;2496;52.468;13.342;2023-04-25T01:38:25;9.70;99.90
4962;DHT22;2496;52.468;13.342;2023-04-25T01:40:53;9.80;99.90
4962;DHT22;2496;52.468;13.342;2023-04-25T01:43:21;9.80;99.90
4962;DHT22;2496;52.468;13.342;2023-04-25T01:45:49;9.80;99.90
4962;DHT22;2496;52.468;13.342;2023-04-25T01:48:17;9.70;99.90
4962;DHT22;2496;52.468;13.342;2023-04-25T01:50:45;9.70;99.90
4962;DHT22;2496;52.468;13.342;2023-04-25T01:53:13;9.70;99.90
4962;DHT22;2496;52.468;13.342;2023-04-25T01:55:42;9.70;99.90
4962;DHT22;2496;52.468;13.342;2023-04-25T01:58:09;9.70;99.90
4962;DHT22;2496;52.468;13.342;2023-04-25T02:00:40;9.70;99.90
4962;DHT22;2496;52.468;13.342;2023-04-25T02:03:10;9.60;99.90
4962;DHT22;2496;52.468;13.342;2023-04-25T02:05:40;9.60;99.90
4962;DHT22;2496;52.468;13.342;2023-04-25T02:08:09;9.60;99.90
4962;DHT22;2496;52.468;13.342;2023-04-25T02:10:38;9.60;99.90
4962;DHT22;2496;52.468;13.342;2023-04-25T02:13:11;9.60;99.90
4962;DHT22;2496;52.468;13.342;2023-04-25T02:15:39;9.60;99.90
4962;DHT22;2496;52.468;13.342;2023-04-25T02:18:08;9.60;99.90
4962;DHT22;2496;52.468;13.342;2023-04-25T02:20:36;9.60;99.90
4962;DHT22;2496;52.468;13.342;2023-04-25T02:23:03;9.60;99.90
4962;DHT22;2496;52.468;13.342;2023-04-25T02:25:31;9.60;99.90
4962;DHT22;2496;52.468;13.342;2023-04-25T02:27:59;9.60;99.90
4962;DHT22;2496;52.468;13.342;2023-04-25T02:30:28;9.60;99.90
4962;DHT22;2496;52.468;13.342;2023-04-25T02:32:57;9.60;99.90
4962;DHT22;2496;52.468;13.342;2023-04-25T02:35:26;9.60;99.90
4962;DHT22;2496;52.468;13.342;2023-04-25T02:37:54;9.60;99.90
4962;DHT22;2496;52.468;13.342;2023-04-25T02:40:22;9.60;99.90
4962;DHT22;2496;52.468;13.342;2023-04-25T02:42:51;9.60;99.90
4962;DHT22;2496;52.468;13.342;2023-04-25T02:45:19;9.60;99.90
4962;DHT22;2496;52.468;13.342;2023-04-25T02:47:49;9.60;99.90
4962;DHT22;2496;52.468;13.342;2023-04-25T02:50:18;9.60;99.90
4962;DHT22;2496;52.468;13.342;2023-04-25T02:52:46;9.60;99.90
4962;DHT22;2496;52.468;13.342;2023-04-25T02:55:15;9.60;99.90
4962;DHT22;2496;52.468;13.342;2023-04-25T02:57:43;9.60;99.90
4962;DHT22;2496;52.468;13.342;2023-04-25T03:00:13;9.60;99.90
4962;DHT22;2496;52.468;13.342;2023-04-25T03:02:40;9.50;99.90
4962;DHT22;2496;52.468;13.342;2023-04-25T03:05:10;9.50;99.90
4962;DHT22;2496;52.468;13.342;2023-04-25T03:07:37;9.50;99.90
4962;DHT22;2496;52.468;13.342;2023-04-25T03:10:07;9.40;99.90
4962;DHT22;2496;52.468;13.342;2023-04-25T03:12:34;9.40;99.90
4962;DHT22;2496;52.468;13.342;2023-04-25T03:15:02;9.40;99.90
4962;DHT22;2496;52.468;13.342;2023-04-25T03:17:31;9.40;99.90
4962;DHT22;2496;52.468;13.342;2023-04-25T03:19:58;9.40;99.90
4962;DHT22;2496;52.468;13.342;2023-04-25T03:22:26;9.40;99.90
4962;DHT22;2496;52.468;13.342;2023-04-25T03:24:53;9.30;99.90
4962;DHT22;2496;52.468;13.342;2023-04-25T03:27:22;9.30;99.90
4962;DHT22;2496;52.468;13.342;2023-04-25T03:29:51;9.30;99.90
4962;DHT22;2496;52.468;13.342;2023-04-25T03:32:21;9.30;99.90
4962;DHT22;2496;52.468;13.342;2023-04-25T03:34:55;9.30;99.90
4962;DHT22;2496;52.468;13.342;2023-04-25T03:37:23;9.30;99.90
4962;DHT22;2496;52.468;13.342;2023-04-25T03:39:51;9.30;99.90
4962;DHT22;2496;52.468;13.342;2023-04-25T03:42:19;9.30;99.90
4962;DHT22;2496;52.468;13.342;2023-04-25T03:44:49;9.30;99.90
4962;DHT22;2496;52.468;13.342;2023-04-25T03:47:17;9.30;99.90
4962;DHT22;2496;52.468;13.342;2023-04-25T03:49:46;9.30;99.90
4962;DHT22;2496;52.468;13.342;2023-04-25T03:52:18;9.30;99.90
4962;DHT22;2496;52.468;13.342;2023-04-25T03:54:48;9.30;99.90
4962;DHT22;2496;52.468;13.342;2023-04-25T03:57:18;9.30;99.90
4962;DHT22;2496;52.468;13.342;2023-04-25T03:59:45;9.30;99.90
4962;DHT22;2496;52.468;13.342;2023-04-25T04:02:13;9.30;99.90
4962;DHT22;2496;52.468;13.342;2023-04-25T04:04:41;9.30;99.90
4962;DHT22;2496;52.468;13.342;2023-04-25T04:07:10;9.30;99.90
4962;DHT22;2496;52.468;13.342;2023-04-25T04:09:37;9.30;99.90
4962;DHT22;2496;52.468;13.342;2023-04-25T04:12:05;9.30;99.90
4962;DHT22;2496;52.468;13.342;2023-04-25T04:14:35;9.30;99.90
4962;DHT22;2496;52.468;13.342;2023-04-25T04:17:04;9.30;99.90
4962;DHT22;2496;52.468;13.342;2023-04-25T04:19:32;9.30;99.90
4962;DHT22;2496;52.468;13.342;2023-04-25T04:22:01;9.40;99.90
4962;DHT22;2496;52.468;13.342;2023-04-25T04:24:29;9.30;99.90
4962;DHT22;2496;52.468;13.342;2023-04-25T04:26:56;9.30;99.90
4962;DHT22;2496;52.468;13.342;2023-04-25T04:29:23;9.40;99.90
4962;DHT22;2496;52.468;13.342;2023-04-25T04:31:52;9.30;99.90
4962;DHT22;2496;52.468;13.342;2023-04-25T04:34:21;9.30;99.90
4962;DHT22;2496;52.468;13.342;2023-04-25T04:36:50;9.30;99.90
4962;DHT22;2496;52.468;13.342;2023-04-25T04:39:18;9.30;99.90
4962;DHT22;2496;52.468;13.342;2023-04-25T04:41:46;9.40;99.90
4962;DHT22;2496;52.468;13.342;2023-04-25T04:44:14;9.40;99.90
4962;DHT22;2496;52.468;13.342;2023-04-25T04:46:41;9.40;99.90
4962;DHT22;2496;52.468;13.342;2023-04-25T04:49:12;9.40;99.90
4962;DHT22;2496;52.468;13.342;2023-04-25T04:51:39;9.50;99.90
4962;DHT22;2496;52.468;13.342;2023-04-25T04:54:10;9.50;99.90
4962;DHT22;2496;52.468;13.342;2023-04-25T04:56:37;9.50;99.90
4962;DHT22;2496;52.468;13.342;2023-04-25T04:59:04;9.50;99.90
4962;DHT22;2496;52.468;13.342;2023-04-25T05:01:31;9.50;99.90
4962;DHT22;2496;52.468;13.342;2023-04-25T05:03:58;9.50;99.90
4962;DHT22;2496;52.468;13.342;2023-04-25T05:06:27;9.60;99.90
4962;DHT22;2496;52.468;13.342;2023-04-25T05:08:55;9.60;99.90
4962;DHT22;2496;52.468;13.342;2023-04-25T05:11:22;9.60;99.90
4962;DHT22;2496;52.468;13.342;2023-04-25T05:13:50;9.60;99.90
4962;DHT22;2496;52.468;13.342;2023-04-25T05:16:17;9.70;99.90
4962;DHT22;2496;52.468;13.342;2023-04-25T05:18:46;9.70;99.90
4962;DHT22;2496;52.468;13.342;2023-04-25T05:21:13;9.70;99.90
4962;DHT22;2496;52.468;13.342;2023-04-25T05:23:41;9.60;99.90
4962;DHT22;2496;52.468;13.342;2023-04-25T05:26:09;9.60;99.90
4962;DHT22;2496;52.468;13.342;2023-04-25T05:28:39;9.60;99.90
4962;DHT22;2496;52.468;13.342;2023-04-25T05:31:06;9.60;99.90
4962;DHT22;2496;52.468;13.342;2023-04-25T05:33:33;9.60;99.90
4962;DHT22;2496;52.468;13.342;2023-04-25T05:36:00;9.60;99.90
4962;DHT22;2496;52.468;13.342;2023-04-25T05:38:27;9.60;99.90
4962;DHT22;2496;52.468;13.342;2023-04-25T05:40:56;9.60;99.90
4962;DHT22;2496;52.468;13.342;2023-04-25T05:43:23;9.70;99.90
4962;DHT22;2496;52.468;13.342;2023-04-25T05:45:50;9.60;99.90
4962;DHT22;2496;52.468;13.342;2023-04-25T05:48:17;9.70;99.90
4962;DHT22;2496;52.468;13.342;2023-04-25T05:50:44;9.60;99.90
4962;DHT22;2496;52.468;13.342;2023-04-25T05:53:11;9.70;99.90
4962;DHT22;2496;52.468;13.342;2023-04-25T05:55:38;9.70;99.90
4962;DHT22;2496;52.468;13.342;2023-04-25T05:58:06;9.60;99.90
4962;DHT22;2496;52.468;13.342;2023-04-25T06:00:33;9.60;99.90
4962;DHT22;2496;52.468;13.342;2023-04-25T06:03:00;9.60;99.90
4962;DHT22;2496;52.468;13.342;2023-04-25T06:05:28;9.60;99.90
4962;DHT22;2496;52.468;13.342;2023-04-25T06:07:54;9.60;99.90
4962;DHT22;2496;52.468;13.342;2023-04-25T06:10:22;9.60;99.90
4962;DHT22;2496;52.468;13.342;2023-04-25T06:12:49;9.60;99.90
4962;DHT22;2496;52.468;13.342;2023-04-25T06:15:17;9.60;99.90
4962;DHT22;2496;52.468;13.342;2023-04-25T06:17:44;9.60;99.90
4962;DHT22;2496;52.468;13.342;2023-04-25T06:20:12;9.60;99.90
4962;DHT22;2496;52.468;13.342;2023-04-25T06:22:39;9.60;99.90
4962;DHT22;2496;52.468;13.342;2023-04-25T06:25:06;9.70;99.90
4962;DHT22;2496;52.468;13.342;2023-04-25T06:27:33;9.70;99.90
4962;DHT22;2496;52.468;13.342;2023-04-25T06:30:00;9.70;99.90
4962;DHT22;2496;52.468;13.342;2023-04-25T06:32:28;9.70;99.90
4962;DHT22;2496;52.468;13.342;2023-04-25T06:34:55;9.80;99.90
4962;DHT22;2496;52.468;13.342;2023-04-25T06:37:23;9.80;99.90
4962;DHT22;2496;52.468;13.342;2023-04-25T06:39:50;9.80;99.90
4962;DHT22;2496;52.468;13.342;2023-04-25T06:42:17;9.80;99.90
4962;DHT22;2496;52.468;13.342;2023-04-25T06:44:45;9.80;99.90
4962;DHT22;2496;52.468;13.342;2023-04-25T06:47:12;9.80;99.90
4962;DHT22;2496;52.468;13.342;2023-04-25T06:49:40;9.90;99.90
4962;DHT22;2496;52.468;13.342;2023-04-25T06:52:07;9.90;99.90
4962;DHT22;2496;52.468;13.342;2023-04-25T06:54:36;9.90;99.90
4962;DHT22;2496;52.468;13.342;2023-04-25T06:57:03;9.90;99.90
4962;DHT22;2496;52.468;13.342;2023-04-25T06:59:30;9.90;99.90
4962;DHT22;2496;52.468;13.342;2023-04-25T07:01:58;10.00;99.90
4962;DHT22;2496;52.468;13.342;2023-04-25T07:04:25;9.90;99.90
4962;DHT22;2496;52.468;13.342;2023-04-25T07:06:53;9.90;99.90
4962;DHT22;2496;52.468;13.342;2023-04-25T07:09:21;9.80;99.90
4962;DHT22;2496;52.468;13.342;2023-04-25T07:11:48;9.70;99.90
4962;DHT22;2496;52.468;13.342;2023-04-25T07:14:15;9.70;99.90
4962;DHT22;2496;52.468;13.342;2023-04-25T07:16:41;9.70;99.90
4962;DHT22;2496;52.468;13.342;2023-04-25T07:19:08;9.60;99.90
4962;DHT22;2496;52.468;13.342;2023-04-25T07:21:35;9.60;99.90
4962;DHT22;2496;52.468;13.342;2023-04-25T07:24:05;9.50;99.90
4962;DHT22;2496;52.468;13.342;2023-04-25T07:26:32;9.60;99.90
4962;DHT22;2496;52.468;13.342;2023-04-25T07:28:59;9.60;99.90
4962;DHT22;2496;52.468;13.342;2023-04-25T07:31:26;9.50;99.90
4962;DHT22;2496;52.468;13.342;2023-04-25T07:33:54;9.50;99.90
4962;DHT22;2496;52.468;13.342;2023-04-25T07:36:21;9.50;99.90
4962;DHT22;2496;52.468;13.342;2023-04-25T07:38:48;9.50;99.90
4962;DHT22;2496;52.468;13.342;2023-04-25T07:41:16;9.60;99.90
4962;DHT22;2496;52.468;13.342;2023-04-25T07:43:45;9.70;99.90
4962;DHT22;2496;52.468;13.342;2023-04-25T07:46:12;9.90;99.90
4962;DHT22;2496;52.468;13.342;2023-04-25T07:48:39;9.90;99.90
4962;DHT22;2496;52.468;13.342;2023-04-25T07:51:06;10.00;99.90
4962;DHT22;2496;52.468;13.342;2023-04-25T07:53:33;10.10;99.90
4962;DHT22;2496;52.468;13.342;2023-04-25T07:56:01;10.10;99.90
4962;DHT22;2496;52.468;13.342;2023-04-25T07:58:29;10.20;99.90
4962;DHT22;2496;52.468;13.342;2023-04-25T08:00:56;10.20;99.90
4962;DHT22;2496;52.468;13.342;2023-04-25T08:03:23;10.20;99.90
4962;DHT22;2496;52.468;13.342;2023-04-25T08:05:50;10.10;99.90
4962;DHT22;2496;52.468;13.342;2023-04-25T08:08:17;10.00;99.90
4962;DHT22;2496;52.468;13.342;2023-04-25T08:10:44;10.10;99.90
4962;DHT22;2496;52.468;13.342;2023-04-25T08:13:13;10.10;99.90
4962;DHT22;2496;52.468;13.342;2023-04-25T08:15:42;10.10;99.90
4962;DHT22;2496;52.468;13.342;2023-04-25T08:18:09;10.10;99.90
4962;DHT22;2496;52.468;13.342;2023-04-25T08:20:36;10.00;99.90
4962;DHT22;2496;52.468;13.342;2023-04-25T08:23:03;10.00;99.90
4962;DHT22;2496;52.468;13.342;2023-04-25T08:25:30;9.90;99.90
4962;DHT22;2496;52.468;13.342;2023-04-25T08:27:57;9.90;99.90
4962;DHT22;2496;52.468;13.342;2023-04-25T08:30:25;9.90;99.90
4962;DHT22;2496;52.468;13.342;2023-04-25T08:32:54;9.90;99.90
4962;DHT22;2496;52.468;13.342;2023-04-25T08:35:20;10.00;99.90
4962;DHT22;2496;52.468;13.342;2023-04-25T08:37:47;10.10;99.90
4962;DHT22;2496;52.468;13.342;2023-04-25T08:40:16;10.20;99.90
4962;DHT22;2496;52.468;13.342;2023-04-25T08:42:43;10.20;99.90
4962;DHT22;2496;52.468;13.342;2023-04-25T08:45:10;10.20;99.90
4962;DHT22;2496;52.468;13.342;2023-04-25T08:47:38;10.30;99.90
4962;DHT22;2496;52.468;13.342;2023-04-25T08:50:08;10.40;99.90
4962;DHT22;2496;52.468;13.342;2023-04-25T08:52:37;10.50;99.90
4962;DHT22;2496;52.468;13.342;2023-04-25T08:55:08;10.60;99.90
4962;DHT22;2496;52.468;13.342;2023-04-25T08:57:37;10.70;99.60
4962;DHT22;2496;52.468;13.342;2023-04-25T09:00:05;11.00;99.70
4962;DHT22;2496;52.468;13.342;2023-04-25T09:02:33;11.40;98.60
4962;DHT22;2496;52.468;13.342;2023-04-25T09:05:02;11.80;96.50
4962;DHT22;2496;52.468;13.342;2023-04-25T09:07:31;11.90;95.90
4962;DHT22;2496;52.468;13.342;2023-04-25T09:09:58;12.10;95.00
4962;DHT22;2496;52.468;13.342;2023-04-25T09:12:29;12.60;95.30
4962;DHT22;2496;52.468;13.342;2023-04-25T09:15:04;13.30;94.40
4962;DHT22;2496;52.468;13.342;2023-04-25T09:17:32;13.70;92.10
4962;DHT22;2496;52.468;13.342;2023-04-25T09:20:06;13.70;91.60
4962;DHT22;2496;52.468;13.342;2023-04-25T09:22:35;13.20;91.10
4962;DHT22;2496;52.468;13.342;2023-04-25T09:25:03;12.60;91.80
4962;DHT22;2496;52.468;13.342;2023-04-25T09:27:32;12.20;92.30
4962;DHT22;2496;52.468;13.342;2023-04-25T09:30:00;12.30;92.60
4962;DHT22;2496;52.468;13.342;2023-04-25T09:32:27;12.50;92.80
4962;DHT22;2496;52.468;13.342;2023-04-25T09:34:55;12.80;92.50
4962;DHT22;2496;52.468;13.342;2023-04-25T09:37:23;12.90;92.50
4962;DHT22;2496;52.468;13.342;2023-04-25T09:39:53;13.00;92.00
4962;DHT22;2496;52.468;13.342;2023-04-25T09:42:22;12.80;91.70
4962;DHT22;2496;52.468;13.342;2023-04-25T09:44:51;12.20;92.40
4962;DHT22;2496;52.468;13.342;2023-04-25T09:47:19;11.80;93.00
4962;DHT22;2496;52.468;13.342;2023-04-25T09:49:48;11.60;93.60
4962;DHT22;2496;52.468;13.342;2023-04-25T09:52:17;11.60;93.70
4962;DHT22;2496;52.468;13.342;2023-04-25T09:54:44;11.80;93.30
4962;DHT22;2496;52.468;13.342;2023-04-25T09:57:15;11.90;92.80
4962;DHT22;2496;52.468;13.342;2023-04-25T09:59:44;11.80;92.60
4962;DHT22;2496;52.468;13.342;2023-04-25T10:02:13;11.70;93.00
4962;DHT22;2496;52.468;13.342;2023-04-25T10:04:41;11.80;92.80
4962;DHT22;2496;52.468;13.342;2023-04-25T10:07:09;11.80;92.90
4962;DHT22;2496;52.468;13.342;2023-04-25T10:09:38;12.00;92.40
4962;DHT22;2496;52.468;13.342;2023-04-25T10:12:06;12.10;91.50
4962;DHT22;2496;52.468;13.342;2023-04-25T10:14:35;12.20;90.90
4962;DHT22;2496;52.468;13.342;2023-04-25T10:17:02;12.30;90.90
4962;DHT22;2496;52.468;13.342;2023-04-25T10:19:29;12.30;90.50
4962;DHT22;2496;52.468;13.342;2023-04-25T10:22:04;12.30;90.80
4962;DHT22;2496;52.468;13.342;2023-04-25T10:24:31;12.30;90.30
4962;DHT22;2496;52.468;13.342;2023-04-25T10:26:59;12.30;90.70
4962;DHT22;2496;52.468;13.342;2023-04-25T10:29:27;12.30;90.30
4962;DHT22;2496;52.468;13.342;2023-04-25T10:31:57;12.40;90.00
4962;DHT22;2496;52.468;13.342;2023-04-25T10:34:25;12.40;90.00
4962;DHT22;2496;52.468;13.342;2023-04-25T10:37:05;12.30;89.10
4962;DHT22;2496;52.468;13.342;2023-04-25T10:39:33;12.00;89.30
4962;DHT22;2496;52.468;13.342;2023-04-25T10:42:02;11.90;89.70
4962;DHT22;2496;52.468;13.342;2023-04-25T10:44:30;11.80;90.00
4962;DHT22;2496;52.468;13.342;2023-04-25T10:46:59;11.70;90.40
4962;DHT22;2496;52.468;13.342;2023-04-25T10:49:31;11.60;90.20
4962;DHT22;2496;52.468;13.342;2023-04-25T10:52:24;11.60;90.50
4962;DHT22;2496;52.468;13.342;2023-04-25T10:54:53;11.60;90.40
4962;DHT22;2496;52.468;13.342;2023-04-25T10:57:30;11.60;90.40
4962;DHT22;2496;52.468;13.342;2023-04-25T10:59:59;11.70;90.60
4962;DHT22;2496;52.468;13.342;2023-04-25T11:02:28;11.70;90.20
4962;DHT22;2496;52.468;13.342;2023-04-25T11:04:56;11.80;90.30
4962;DHT22;2496;52.468;13.342;2023-04-25T11:07:29;11.90;90.30
4962;DHT22;2496;52.468;13.342;2023-04-25T11:10:02;12.10;90.20
4962;DHT22;2496;52.468;13.342;2023-04-25T11:12:30;12.10;89.20
4962;DHT22;2496;52.468;13.342;2023-04-25T11:17:30;11.60;87.80
4962;DHT22;2496;52.468;13.342;2023-04-25T11:19:58;11.50;89.10
4962;DHT22;2496;52.468;13.342;2023-04-25T11:22:27;11.50;89.40
4962;DHT22;2496;52.468;13.342;2023-04-25T11:24:55;11.30;89.70
4962;DHT22;2496;52.468;13.342;2023-04-25T11:27:22;11.10;90.00
4962;DHT22;2496;52.468;13.342;2023-04-25T11:29:50;10.90;89.50
4962;DHT22;2496;52.468;13.342;2023-04-25T11:32:18;10.80;89.20
4962;DHT22;2496;52.468;13.342;2023-04-25T11:34:47;10.70;87.20
4962;DHT22;2496;52.468;13.342;2023-04-25T11:37:14;10.50;87.00
4962;DHT22;2496;52.468;13.342;2023-04-25T11:39:44;10.50;87.60
4962;DHT22;2496;52.468;13.342;2023-04-25T11:42:13;10.60;87.20
4962;DHT22;2496;52.468;13.342;2023-04-25T11:44:40;10.70;86.80
4962;DHT22;2496;52.468;13.342;2023-04-25T11:47:07;10.60;85.10
4962;DHT22;2496;52.468;13.342;2023-04-25T11:49:35;10.60;85.60
4962;DHT22;2496;52.468;13.342;2023-04-25T11:52:06;10.70;85.70
4962;DHT22;2496;52.468;13.342;2023-04-25T11:54:35;10.90;86.20
4962;DHT22;2496;52.468;13.342;2023-04-25T11:57:03;11.10;84.90
4962;DHT22;2496;52.468;13.342;2023-04-25T11:59:30;11.20;84.10
4962;DHT22;2496;52.468;13.342;2023-04-25T12:01:57;11.10;83.80
4962;DHT22;2496;52.468;13.342;2023-04-25T12:04:25;10.90;84.70
4962;DHT22;2496;52.468;13.342;2023-04-25T12:06:53;10.80;85.50
4962;DHT22;2496;52.468;13.342;2023-04-25T12:09:28;10.80;85.70
4962;DHT22;2496;52.468;13.342;2023-04-25T12:11:56;10.80;86.10
4962;DHT22;2496;52.468;13.342;2023-04-25T12:14:26;10.90;87.00
4962;DHT22;2496;52.468;13.342;2023-04-25T12:16:55;10.90;86.20
4962;DHT22;2496;52.468;13.342;2023-04-25T12:19:23;10.90;86.10
4962;DHT22;2496;52.468;13.342;2023-04-25T12:21:50;11.00;86.10
4962;DHT22;2496;52.468;13.342;2023-04-25T12:24:21;11.10;85.20
4962;DHT22;2496;52.468;13.342;2023-04-25T12:26:52;11.10;85.50
4962;DHT22;2496;52.468;13.342;2023-04-25T12:29:22;11.30;86.50
4962;DHT22;2496;52.468;13.342;2023-04-25T12:31:50;11.40;85.30
4962;DHT22;2496;52.468;13.342;2023-04-25T12:34:17;11.60;85.60
4962;DHT22;2496;52.468;13.342;2023-04-25T12:36:45;11.70;83.80
4962;DHT22;2496;52.468;13.342;2023-04-25T12:39:15;11.80;83.70
4962;DHT22;2496;52.468;13.342;2023-04-25T12:41:42;11.90;83.10
4962;DHT22;2496;52.468;13.342;2023-04-25T12:44:11;12.00;82.80
4962;DHT22;2496;52.468;13.342;2023-04-25T12:46:39;12.10;82.00
4962;DHT22;2496;52.468;13.342;2023-04-25T12:49:06;11.90;82.70
4962;DHT22;2496;52.468;13.342;2023-04-25T12:51:34;11.60;84.30
4962;DHT22;2496;52.468;13.342;2023-04-25T12:54:01;11.60;85.30
4962;DHT22;2496;52.468;13.342;2023-04-25T12:56:28;11.60;84.80
4962;DHT22;2496;52.468;13.342;2023-04-25T12:58:55;11.40;85.10
4962;DHT22;2496;52.468;13.342;2023-04-25T13:01:24;11.30;85.20
4962;DHT22;2496;52.468;13.342;2023-04-25T13:03:52;11.40;84.50
4962;DHT22;2496;52.468;13.342;2023-04-25T13:06:20;11.40;84.00
4962;DHT22;2496;52.468;13.342;2023-04-25T13:08:47;11.50;83.90
4962;DHT22;2496;52.468;13.342;2023-04-25T13:11:14;11.60;83.70
4962;DHT22;2496;52.468;13.342;2023-04-25T13:13:41;11.70;83.40
4962;DHT22;2496;52.468;13.342;2023-04-25T13:16:08;11.70;82.80
4962;DHT22;2496;52.468;13.342;2023-04-25T13:18:37;11.70;82.10
4962;DHT22;2496;52.468;13.342;2023-04-25T13:21:04;11.80;82.30
4962;DHT22;2496;52.468;13.342;2023-04-25T13:23:31;11.90;82.50
4962;DHT22;2496;52.468;13.342;2023-04-25T13:25:58;12.00;81.80
4962;DHT22;2496;52.468;13.342;2023-04-25T13:28:27;12.00;81.80
4962;DHT22;2496;52.468;13.342;2023-04-25T13:30:54;12.00;82.30
4962;DHT22;2496;52.468;13.342;2023-04-25T13:33:21;12.00;83.10
4962;DHT22;2496;52.468;13.342;2023-04-25T13:35:49;12.00;83.30
4962;DHT22;2496;52.468;13.342;2023-04-25T13:38:20;11.90;83.50
4962;DHT22;2496;52.468;13.342;2023-04-25T13:40:48;11.80;83.50
4962;DHT22;2496;52.468;13.342;2023-04-25T13:43:15;11.70;84.00
4962;DHT22;2496;52.468;13.342;2023-04-25T13:45:42;11.60;83.90
4962;DHT22;2496;52.468;13.342;2023-04-25T13:48:09;11.50;83.90
4962;DHT22;2496;52.468;13.342;2023-04-25T13:50:36;11.40;84.50
4962;DHT22;2496;52.468;13.342;2023-04-25T13:53:04;11.40;84.60
4962;DHT22;2496;52.468;13.342;2023-04-25T13:55:31;11.30;84.50
4962;DHT22;2496;52.468;13.342;2023-04-25T13:57:58;11.20;85.30
4962;DHT22;2496;52.468;13.342;2023-04-25T14:00:25;11.20;85.80
4962;DHT22;2496;52.468;13.342;2023-04-25T14:02:52;11.30;86.20
4962;DHT22;2496;52.468;13.342;2023-04-25T14:05:19;11.40;86.00
4962;DHT22;2496;52.468;13.342;2023-04-25T14:07:46;11.50;86.10
4962;DHT22;2496;52.468;13.342;2023-04-25T14:10:14;11.50;85.90
4962;DHT22;2496;52.468;13.342;2023-04-25T14:12:41;11.50;85.90
4962;DHT22;2496;52.468;13.342;2023-04-25T14:15:09;11.40;85.80
4962;DHT22;2496;52.468;13.342;2023-04-25T14:17:36;11.40;86.20
4962;DHT22;2496;52.468;13.342;2023-04-25T14:20:04;11.40;86.20
4962;DHT22;2496;52.468;13.342;2023-04-25T14:22:33;11.30;85.10
4962;DHT22;2496;52.468;13.342;2023-04-25T14:25:00;11.20;83.90
4962;DHT22;2496;52.468;13.342;2023-04-25T14:27:29;11.10;84.40
4962;DHT22;2496;52.468;13.342;2023-04-25T14:29:56;11.10;84.80
4962;DHT22;2496;52.468;13.342;2023-04-25T14:32:24;11.10;84.50
4962;DHT22;2496;52.468;13.342;2023-04-25T14:34:53;11.10;84.90
4962;DHT22;2496;52.468;13.342;2023-04-25T14:37:20;11.10;84.50
4962;DHT22;2496;52.468;13.342;2023-04-25T14:39:48;11.20;84.70
4962;DHT22;2496;52.468;13.342;2023-04-25T14:42:15;11.20;85.90
4962;DHT22;2496;52.468;13.342;2023-04-25T14:44:43;11.30;86.20
4962;DHT22;2496;52.468;13.342;2023-04-25T14:47:10;11.40;86.30
4962;DHT22;2496;52.468;13.342;2023-04-25T14:49:37;11.40;85.40
4962;DHT22;2496;52.468;13.342;2023-04-25T14:52:04;11.50;85.30
4962;DHT22;2496;52.468;13.342;2023-04-25T14:54:31;11.60;85.90
4962;DHT22;2496;52.468;13.342;2023-04-25T14:56:59;11.70;85.80
4962;DHT22;2496;52.468;13.342;2023-04-25T14:59:26;11.70;85.00
4962;DHT22;2496;52.468;13.342;2023-04-25T15:01:56;11.70;85.10
4962;DHT22;2496;52.468;13.342;2023-04-25T15:04:23;11.60;85.50
4962;DHT22;2496;52.468;13.342;2023-04-25T15:06:51;11.50;86.20
4962;DHT22;2496;52.468;13.342;2023-04-25T15:09:18;11.50;86.70
4962;DHT22;2496;52.468;13.342;2023-04-25T15:11:46;11.50;86.80
4962;DHT22;2496;52.468;13.342;2023-04-25T15:14:13;11.40;87.10
4962;DHT22;2496;52.468;13.342;2023-04-25T15:16:40;11.30;87.60
4962;DHT22;2496;52.468;13.342;2023-04-25T15:19:11;11.30;87.30
4962;DHT22;2496;52.468;13.342;2023-04-25T15:21:38;11.00;87.90
4962;DHT22;2496;52.468;13.342;2023-04-25T15:24:05;10.80;88.50
4962;DHT22;2496;52.468;13.342;2023-04-25T15:26:33;10.60;89.30
4962;DHT22;2496;52.468;13.342;2023-04-25T15:29:01;10.60;89.70
4962;DHT22;2496;52.468;13.342;2023-04-25T15:31:29;10.60;89.70
4962;DHT22;2496;52.468;13.342;2023-04-25T15:33:56;10.80;89.60
4962;DHT22;2496;52.468;13.342;2023-04-25T15:36:24;11.00;89.00
4962;DHT22;2496;52.468;13.342;2023-04-25T15:38:51;11.10;88.40
4962;DHT22;2496;52.468;13.342;2023-04-25T15:41:18;11.10;87.50
4962;DHT22;2496;52.468;13.342;2023-04-25T15:43:47;11.20;87.20
4962;DHT22;2496;52.468;13.342;2023-04-25T15:46:14;11.20;86.50
4962;DHT22;2496;52.468;13.342;2023-04-25T15:48:41;11.20;86.70
4962;DHT22;2496;52.468;13.342;2023-04-25T15:51:08;11.10;87.10
4962;DHT22;2496;52.468;13.342;2023-04-25T15:53:37;11.10;87.40
4962;DHT22;2496;52.468;13.342;2023-04-25T15:56:04;11.00;87.60
4962;DHT22;2496;52.468;13.342;2023-04-25T15:58:31;11.00;88.10
4962;DHT22;2496;52.468;13.342;2023-04-25T16:00:58;10.90;88.40
4962;DHT22;2496;52.468;13.342;2023-04-25T16:03:25;10.90;88.90